Impacts METAR Board
IDs:

KSEA - Seattle-Tacoma Intl, WA, US

Updated at: 0300 UTC 22 Jun 2018
Potential Impact None Slight Moderate High
Time 21/15Z 21/16Z 21/17Z 21/18Z 21/19Z 21/20Z 21/21Z 21/22Z 21/23Z 22/00Z 22/01Z 22/02Z 22/03Z
Temp59 60 61 63 66 65 65 66 68 68 68 67 65
Dewpt53 53 52 52 52 52 52 53 53 53 53 53 53
Altim30.11 30.12 30.13 30.14 30.14 30.15 30.15 30.15 30.14 30.14 30.13 30.13 30.13
VIS10 10 10 10 10 10 10 10 10 10 10 10 10
CIG11 24 20 20 24 23 26 27 31 33 -- -- --
CoverOVCOVCOVCOVCOVCOVCOVCOVCOVCBKNSCTSCTSCT
FltCatMVFRMVFRMVFRMVFRMVFRMVFRMVFRMVFRVFRVFRVFRVFRVFR
WX--------------------------
WDir200200210200190220240250220190240220220
WSpd7 7 11 8 8 10 9 8 9 10 7 8 7
WGst-- -- -- -- -- -- -- -- -- -- -- -- --
Raw hourly METARs
KSEA 211453Z 20007KT 10SM SCT009 OVC011 15/12 A3011 RMK AO2 SLP199 T01500117 51011
KSEA 211553Z 20007KT 10SM SCT015 OVC024 16/12 A3012 RMK AO2 SLP204 T01560117
KSEA 211653Z 21011KT 10SM FEW015 OVC020 16/11 A3013 RMK AO2 SLP208 T01610111
KSEA 211753Z 20008KT 10SM FEW015 OVC020 17/11 A3014 RMK AO2 SLP212 T01720111 10172 20144 51012
KSEA 211853Z 19008KT 10SM BKN024 OVC035 19/11 A3014 RMK AO2 SLP213 T01890111
KSEA 211953Z 22010KT 10SM BKN023 OVC035 18/11 A3015 RMK AO2 SLP214 T01830111
KSEA 212053Z 24009KT 10SM OVC026 18/11 A3015 RMK AO2 SLP216 T01830111 53004
KSEA 212153Z 25008KT 10SM OVC027 19/12 A3015 RMK AO2 SLP216 T01890117
KSEA 212253Z 22009KT 10SM OVC031 20/12 A3014 RMK AO2 SLP211 T02000117
KSEA 212353Z 19010KT 10SM BKN033 BKN250 20/12 A3014 RMK AO2 SLP210 T02000117 10206 20172 58005
KSEA 220053Z 24007KT 10SM SCT034 SCT250 20/12 A3013 RMK AO2 SLP208 T02000117
KSEA 220153Z 22008KT 10SM SCT035 SCT250 19/12 A3013 RMK AO2 SLP207 T01940117
KSEA 220253Z 22007KT 10SM SCT035 SCT250 18/12 A3013 RMK AO2 SLP209 T01830117 55002



Page loaded:  03:12 UTC  |   08:12 PM Pacific  |   09:12 PM Mountain  |   10:12 PM Central  |   11:12 PM Eastern

 

ADVISORIES

FORECASTS

FORECASTS

OBSERVATIONS

USER TOOLS

ABOUT US